createdAt,value
2022-12-04T00:01:52.071Z,68.90
2022-12-04T00:04:21.275Z,68.90
2022-12-04T00:06:54.097Z,68.90
2022-12-04T00:09:27.724Z,68.90
2022-12-04T00:11:57.038Z,69.00
2022-12-04T00:14:26.545Z,69.10
2022-12-04T00:16:57.074Z,69.10
2022-12-04T00:19:26.369Z,69.10
2022-12-04T00:21:55.695Z,69.10
2022-12-04T00:24:24.836Z,69.10
2022-12-04T00:26:53.937Z,69.00
2022-12-04T00:29:23.031Z,69.10
2022-12-04T00:31:52.196Z,69.10
2022-12-04T00:34:23.256Z,69.00
2022-12-04T00:36:52.378Z,68.90
2022-12-04T00:39:21.385Z,68.90
2022-12-04T00:41:50.468Z,68.90
2022-12-04T00:44:19.715Z,68.80
2022-12-04T00:46:49.026Z,68.80
2022-12-04T00:49:18.273Z,69.60
2022-12-04T00:51:48.743Z,68.80
2022-12-04T00:54:18.589Z,68.90
2022-12-04T00:56:50.577Z,69.00
2022-12-04T00:59:19.686Z,69.10
2022-12-04T01:01:48.876Z,69.10
2022-12-04T01:04:18.586Z,69.10
2022-12-04T01:06:49.124Z,69.10
2022-12-04T01:09:18.886Z,69.10
2022-12-04T01:11:47.963Z,69.10
2022-12-04T01:14:19.550Z,69.20
2022-12-04T01:16:48.995Z,69.10
2022-12-04T01:19:18.146Z,69.10
2022-12-04T01:21:48.611Z,69.10
2022-12-04T01:24:18.070Z,69.00
2022-12-04T01:26:47.031Z,69.00
2022-12-04T01:29:16.314Z,69.10
2022-12-04T01:31:45.388Z,68.90
2022-12-04T01:34:14.530Z,69.00
2022-12-04T01:36:43.401Z,68.90
2022-12-04T01:39:13.719Z,68.90
2022-12-04T01:41:42.799Z,69.00
2022-12-04T01:44:15.268Z,69.10
2022-12-04T01:46:45.717Z,69.30
2022-12-04T01:49:19.613Z,69.30
2022-12-04T01:51:52.848Z,69.30
2022-12-04T01:54:29.141Z,69.30
2022-12-04T01:57:03.489Z,69.30
2022-12-04T01:59:37.847Z,69.30
2022-12-04T02:02:10.915Z,69.30
2022-12-04T02:04:41.889Z,69.30
2022-12-04T02:07:11.104Z,69.30
2022-12-04T02:09:43.295Z,69.30
2022-12-04T02:12:21.524Z,69.30
2022-12-04T02:14:58.903Z,69.30
2022-12-04T02:17:31.441Z,69.20
2022-12-04T02:20:29.235Z,69.20
2022-12-04T02:23:30.923Z,69.20
2022-12-04T02:26:13.356Z,69.30
2022-12-04T02:28:50.987Z,69.30
2022-12-04T02:31:23.286Z,69.40
2022-12-04T02:33:59.417Z,69.40
2022-12-04T02:36:32.433Z,69.40
2022-12-04T02:39:08.041Z,69.40
2022-12-04T02:41:42.990Z,69.30
2022-12-04T02:44:17.509Z,69.30
2022-12-04T02:46:51.334Z,69.20
2022-12-04T02:49:26.005Z,69.20
2022-12-04T02:52:08.838Z,69.20
2022-12-04T02:54:40.606Z,69.10
2022-12-04T02:57:15.035Z,69.20
2022-12-04T02:59:47.973Z,69.20
2022-12-04T03:02:22.749Z,69.20
2022-12-04T03:04:54.780Z,69.30
2022-12-04T03:07:29.243Z,69.40
2022-12-04T03:10:04.000Z,69.40
2022-12-04T03:12:41.552Z,69.20
2022-12-04T03:15:16.622Z,69.20
2022-12-04T03:17:53.046Z,69.20
2022-12-04T03:20:23.717Z,69.30
2022-12-04T03:22:57.553Z,69.40
2022-12-04T03:25:34.466Z,69.50
2022-12-04T03:28:06.395Z,69.60
2022-12-04T03:30:44.113Z,69.60
2022-12-04T03:33:17.570Z,69.70
2022-12-04T03:35:50.942Z,69.60
2022-12-04T03:38:24.870Z,69.70
2022-12-04T03:41:00.717Z,69.50
2022-12-04T03:43:33.781Z,69.50
2022-12-04T03:46:10.868Z,69.50
2022-12-04T03:48:45.053Z,69.60
2022-12-04T03:51:18.312Z,69.70
2022-12-04T03:53:52.050Z,69.60
2022-12-04T03:56:24.366Z,69.70
2022-12-04T03:58:58.644Z,69.70
2022-12-04T04:01:34.003Z,69.70
2022-12-04T04:04:07.592Z,69.90
2022-12-04T04:06:42.074Z,69.90
2022-12-04T04:09:15.449Z,69.90
2022-12-04T04:11:48.312Z,69.90
2022-12-04T04:14:37.694Z,69.70
2022-12-04T04:17:34.930Z,69.70
2022-12-04T04:20:27.513Z,69.70
2022-12-04T04:23:16.937Z,69.60
2022-12-04T04:25:47.762Z,69.60
2022-12-04T04:28:31.283Z,69.50
2022-12-04T04:31:08.361Z,69.40
2022-12-04T04:33:52.770Z,69.40
2022-12-04T04:36:28.950Z,69.40
2022-12-04T04:39:03.505Z,69.40
2022-12-04T04:41:40.919Z,69.30
2022-12-04T04:44:17.197Z,69.30
2022-12-04T04:46:50.677Z,69.40
2022-12-04T04:49:26.772Z,69.40
2022-12-04T04:51:56.282Z,69.50
2022-12-04T04:54:26.249Z,69.50
2022-12-04T04:56:54.992Z,69.50
2022-12-04T04:59:23.724Z,69.50
2022-12-04T05:01:52.634Z,69.40
2022-12-04T05:04:22.830Z,69.60
2022-12-04T05:06:51.695Z,69.40
2022-12-04T05:09:20.557Z,69.60
2022-12-04T05:11:49.656Z,69.60
2022-12-04T05:14:18.508Z,69.70
2022-12-04T05:16:47.391Z,69.80
2022-12-04T05:19:33.498Z,69.90
2022-12-04T05:22:03.641Z,69.90
2022-12-04T05:24:32.556Z,70.00
2022-12-04T05:27:01.384Z,70.20
2022-12-04T05:29:34.377Z,70.30
2022-12-04T05:32:04.956Z,70.50
2022-12-04T05:34:33.913Z,70.50
2022-12-04T05:37:04.090Z,70.50
2022-12-04T05:39:33.035Z,70.50
2022-12-04T05:42:02.073Z,70.50
2022-12-04T05:44:31.184Z,70.40
2022-12-04T05:47:00.273Z,70.40
2022-12-04T05:49:30.399Z,70.40
2022-12-04T05:51:59.163Z,70.50
2022-12-04T05:54:29.738Z,70.60
2022-12-04T05:56:58.885Z,70.70
2022-12-04T05:59:27.789Z,70.80
2022-12-04T06:01:56.786Z,70.70
2022-12-04T06:04:25.906Z,70.70
2022-12-04T06:06:55.214Z,70.80
2022-12-04T06:09:24.026Z,70.80
2022-12-04T06:11:58.626Z,70.60
2022-12-04T06:14:27.627Z,70.70
2022-12-04T06:16:57.178Z,70.60
2022-12-04T06:19:25.993Z,70.60
2022-12-04T06:21:54.914Z,70.50
2022-12-04T06:24:25.470Z,70.50
2022-12-04T06:29:48.117Z,70.50
2022-12-04T06:32:21.521Z,70.50
2022-12-04T06:34:53.021Z,70.50
2022-12-04T06:37:23.089Z,70.70
2022-12-04T06:39:52.139Z,70.60
2022-12-04T06:42:22.671Z,70.50
2022-12-04T06:44:51.556Z,70.50
2022-12-04T06:47:20.637Z,70.40
2022-12-04T06:49:51.280Z,70.40
2022-12-04T06:52:20.270Z,70.50
2022-12-04T06:54:49.355Z,70.60
2022-12-04T06:57:18.241Z,70.60
2022-12-04T06:59:48.524Z,70.70
2022-12-04T07:02:17.637Z,70.70
2022-12-04T07:04:46.622Z,70.50
2022-12-04T07:07:15.501Z,70.50
2022-12-04T07:09:45.362Z,70.40
2022-12-04T07:12:14.379Z,70.50
2022-12-04T07:14:43.277Z,70.40
2022-12-04T07:17:13.815Z,70.40
2022-12-04T07:19:42.805Z,70.40
2022-12-04T07:22:11.782Z,70.40
2022-12-04T07:24:40.774Z,70.40
2022-12-04T07:27:09.534Z,70.40
2022-12-04T07:29:38.331Z,70.30
2022-12-04T07:32:07.319Z,70.20
2022-12-04T07:34:37.603Z,70.20
2022-12-04T07:37:06.551Z,70.10
2022-12-04T07:39:35.414Z,70.00
2022-12-04T07:42:04.298Z,69.80
2022-12-04T07:44:33.294Z,69.70
2022-12-04T07:47:02.234Z,69.50
2022-12-04T07:49:31.070Z,69.40
2022-12-04T07:52:01.321Z,69.40
2022-12-04T07:54:30.134Z,69.40
2022-12-04T07:56:59.427Z,69.30
2022-12-04T07:59:28.411Z,69.30
2022-12-04T08:01:57.507Z,69.40
2022-12-04T08:04:26.470Z,69.50
2022-12-04T08:06:55.489Z,69.70
2022-12-04T08:09:25.739Z,69.70
2022-12-04T08:11:54.595Z,69.70
2022-12-04T08:14:23.574Z,69.90
2022-12-04T08:16:53.132Z,69.90
2022-12-04T08:19:22.842Z,69.90
2022-12-04T08:21:51.907Z,70.00
2022-12-04T08:24:20.908Z,70.10
2022-12-04T08:26:51.451Z,70.10
2022-12-04T08:29:20.396Z,70.20
2022-12-04T08:31:49.292Z,70.00
2022-12-04T08:34:18.214Z,70.00
2022-12-04T08:36:47.114Z,70.00
2022-12-04T08:39:15.924Z,70.00
2022-12-04T08:41:44.952Z,70.10
2022-12-04T08:44:15.215Z,70.10
2022-12-04T08:46:44.380Z,70.10
2022-12-04T08:49:13.414Z,70.20
2022-12-04T08:51:42.374Z,70.10
2022-12-04T08:54:14.228Z,70.00
2022-12-04T08:56:44.441Z,70.10
2022-12-04T08:59:15.793Z,70.20
2022-12-04T09:01:45.102Z,70.20
2022-12-04T09:04:14.169Z,70.40
2022-12-04T09:06:43.179Z,70.30
2022-12-04T09:09:12.696Z,70.30
2022-12-04T09:11:41.591Z,70.40
2022-12-04T09:14:10.622Z,70.20
2022-12-04T09:16:40.896Z,69.90
2022-12-04T09:19:09.806Z,69.20
2022-12-04T09:21:39.038Z,68.90
2022-12-04T09:24:07.964Z,68.40
2022-12-04T09:26:36.926Z,68.30
2022-12-04T09:29:07.481Z,68.20
2022-12-04T09:31:37.183Z,68.40
2022-12-04T09:34:07.493Z,69.20
2022-12-04T09:36:36.437Z,69.70
2022-12-04T09:39:05.673Z,69.10
2022-12-04T09:42:13.875Z,68.40
2022-12-04T09:44:47.970Z,67.50
2022-12-04T09:47:22.445Z,66.80
2022-12-04T09:49:58.056Z,65.70
2022-12-04T09:52:39.885Z,65.20
2022-12-04T09:55:17.544Z,65.00
2022-12-04T09:57:49.178Z,64.80
2022-12-04T10:00:21.379Z,65.00
2022-12-04T10:02:56.102Z,65.30
2022-12-04T10:05:41.518Z,65.60
2022-12-04T10:08:19.112Z,66.00
2022-12-04T10:10:57.876Z,66.10
2022-12-04T10:13:49.090Z,66.00
2022-12-04T10:16:26.094Z,65.10
2022-12-04T10:19:02.715Z,64.40
2022-12-04T10:21:43.412Z,62.70
2022-12-04T10:24:25.084Z,61.70
2022-12-04T10:26:59.663Z,61.30
2022-12-04T10:29:32.252Z,61.30
2022-12-04T10:32:07.266Z,60.70
2022-12-04T10:34:39.927Z,59.80
2022-12-04T10:37:15.147Z,59.00
2022-12-04T10:39:50.526Z,58.10
2022-12-04T10:42:27.763Z,57.20
2022-12-04T10:44:56.975Z,56.70
2022-12-04T10:47:26.433Z,57.20
2022-12-04T10:50:01.507Z,57.30
2022-12-04T10:52:31.865Z,58.00
2022-12-04T10:55:02.350Z,58.60
2022-12-04T10:57:40.359Z,58.70
2022-12-04T11:00:27.053Z,58.10
2022-12-04T11:02:58.606Z,58.00
2022-12-04T11:05:32.770Z,58.30
2022-12-04T11:08:06.357Z,57.10
2022-12-04T11:10:38.599Z,56.40
2022-12-04T11:13:15.589Z,55.70
2022-12-04T11:15:46.023Z,55.10
2022-12-04T11:18:19.318Z,53.60
2022-12-04T11:20:54.484Z,52.20
2022-12-04T11:23:25.299Z,51.20
2022-12-04T11:26:03.726Z,50.70
2022-12-04T11:28:43.383Z,50.20
2022-12-04T11:31:19.446Z,50.20
2022-12-04T11:33:52.829Z,50.30
2022-12-04T11:36:25.235Z,50.70
2022-12-04T11:39:06.163Z,51.30
2022-12-04T11:41:35.831Z,52.10
2022-12-04T11:44:07.248Z,52.90
2022-12-04T11:46:36.189Z,53.10
2022-12-04T11:49:05.083Z,53.00
2022-12-04T11:51:48.763Z,52.80
2022-12-04T11:54:28.879Z,51.50
2022-12-04T11:57:07.102Z,50.00
2022-12-04T11:59:58.668Z,49.30
2022-12-04T12:03:00.546Z,48.90
2022-12-04T12:05:53.625Z,49.20
2022-12-04T12:08:33.678Z,49.50
2022-12-04T12:11:13.715Z,50.00
2022-12-04T12:13:51.317Z,50.60
2022-12-04T12:16:28.696Z,51.00
2022-12-04T12:19:12.970Z,51.60
2022-12-04T12:21:51.823Z,52.30
2022-12-04T12:24:26.831Z,52.70
2022-12-04T12:27:10.342Z,53.00
2022-12-04T12:29:57.342Z,53.50
2022-12-04T12:32:42.050Z,54.10
2022-12-04T12:35:20.754Z,54.40
2022-12-04T12:37:53.749Z,54.90
2022-12-04T12:40:31.524Z,55.20
2022-12-04T12:43:07.553Z,55.50
2022-12-04T12:45:45.023Z,55.90
2022-12-04T12:48:25.691Z,56.40
2022-12-04T12:51:28.611Z,56.60
2022-12-04T12:53:54.627Z,56.90
2022-12-04T12:56:43.472Z,57.10
2022-12-04T12:59:24.931Z,57.40
2022-12-04T13:02:13.924Z,57.50
2022-12-04T13:04:56.540Z,57.90
2022-12-04T13:07:42.343Z,58.00
2022-12-04T13:10:17.430Z,58.20
2022-12-04T13:12:50.452Z,58.50
2022-12-04T13:15:25.246Z,58.60
2022-12-04T13:17:57.138Z,58.80
2022-12-04T13:20:31.217Z,58.90
2022-12-04T13:23:16.205Z,59.20
2022-12-04T13:25:58.380Z,59.40
2022-12-04T13:28:37.989Z,59.70
2022-12-04T13:31:19.274Z,59.90
2022-12-04T13:34:12.599Z,60.10
2022-12-04T13:37:03.653Z,60.30
2022-12-04T13:40:02.705Z,60.50
2022-12-04T13:42:31.939Z,60.60
2022-12-04T13:45:04.569Z,60.30
2022-12-04T13:47:36.933Z,60.60
2022-12-04T13:50:28.224Z,60.90
2022-12-04T13:52:58.010Z,61.10
2022-12-04T13:55:31.530Z,61.20
2022-12-04T13:58:03.594Z,62.10
2022-12-04T14:00:35.312Z,61.40
2022-12-04T14:03:20.464Z,61.40
2022-12-04T14:05:51.255Z,61.60
2022-12-04T14:08:25.525Z,61.40
2022-12-04T14:11:01.191Z,61.70
2022-12-04T14:13:44.530Z,61.80
2022-12-04T14:16:23.907Z,62.00
2022-12-04T14:18:57.494Z,62.10
2022-12-04T14:21:27.433Z,62.10
2022-12-04T14:23:56.730Z,62.00
2022-12-04T14:27:10.296Z,62.00
2022-12-04T14:29:47.120Z,62.30
2022-12-04T14:32:19.953Z,62.70
2022-12-04T14:34:51.609Z,62.40
2022-12-04T14:37:26.651Z,62.50
2022-12-04T14:39:58.663Z,62.70
2022-12-04T14:42:32.909Z,63.00
2022-12-04T14:45:05.346Z,63.00
2022-12-04T14:47:43.837Z,63.30
2022-12-04T14:50:28.786Z,63.60
2022-12-04T14:53:04.513Z,63.80
2022-12-04T14:55:44.472Z,63.70
2022-12-04T14:58:34.758Z,63.80
2022-12-04T15:01:07.504Z,63.90
2022-12-04T15:03:38.377Z,64.00
2022-12-04T15:06:21.352Z,65.00
2022-12-04T15:08:51.892Z,64.40
2022-12-04T15:11:39.859Z,64.50
2022-12-04T15:14:14.758Z,64.60
2022-12-04T15:16:44.173Z,64.80
2022-12-04T15:19:21.165Z,64.90
2022-12-04T15:21:53.014Z,65.00
2022-12-04T15:24:24.402Z,65.00
2022-12-04T15:26:55.022Z,65.10
2022-12-04T15:29:28.351Z,65.30
2022-12-04T15:31:59.858Z,65.40
2022-12-04T15:34:37.335Z,65.60
2022-12-04T15:37:15.221Z,65.80
2022-12-04T15:39:45.253Z,66.00
2022-12-04T15:42:20.612Z,66.10
2022-12-04T15:44:55.439Z,66.20
2022-12-04T15:47:26.662Z,66.30
2022-12-04T15:49:56.466Z,66.40
2022-12-04T15:52:27.115Z,66.40
2022-12-04T15:55:00.668Z,66.60
2022-12-04T15:57:33.765Z,66.60
2022-12-04T16:00:05.434Z,66.60
2022-12-04T16:02:36.841Z,66.80
2022-12-04T16:05:13.491Z,66.70
2022-12-04T16:07:52.674Z,66.80
2022-12-04T16:10:25.227Z,67.00
2022-12-04T16:12:55.415Z,67.00
2022-12-04T16:15:25.830Z,67.10
2022-12-04T16:17:55.345Z,67.10
2022-12-04T16:20:24.879Z,67.10
2022-12-04T16:22:56.510Z,67.40
2022-12-04T16:25:26.457Z,67.40
2022-12-04T16:27:55.767Z,67.50
2022-12-04T16:30:25.048Z,67.60
2022-12-04T16:32:54.949Z,67.60
2022-12-04T16:35:24.336Z,67.80
2022-12-04T16:37:55.038Z,67.80
2022-12-04T16:40:24.430Z,67.80
2022-12-04T16:42:53.899Z,67.90
2022-12-04T16:45:27.882Z,67.90
2022-12-04T16:47:57.983Z,68.10
2022-12-04T16:50:28.086Z,68.10
2022-12-04T16:52:59.738Z,68.90
2022-12-04T16:55:33.848Z,68.40
2022-12-04T16:58:03.055Z,68.40
2022-12-04T17:00:32.611Z,68.20
2022-12-04T17:03:04.103Z,68.30
2022-12-04T17:05:35.805Z,68.50
2022-12-04T17:08:06.430Z,68.60
2022-12-04T17:10:35.371Z,68.60
2022-12-04T17:13:04.645Z,68.60
2022-12-04T17:15:33.831Z,68.50
2022-12-04T17:18:07.386Z,68.60
2022-12-04T17:20:42.264Z,68.60
2022-12-04T17:23:13.693Z,68.60
2022-12-04T17:25:42.930Z,68.70
2022-12-04T17:28:12.289Z,68.60
2022-12-04T17:30:45.078Z,68.60
2022-12-04T17:33:14.235Z,68.70
2022-12-04T17:35:48.261Z,68.60
2022-12-04T17:38:19.678Z,68.60
2022-12-04T17:41:00.844Z,68.60
2022-12-04T17:43:31.744Z,68.80
2022-12-04T17:46:01.669Z,68.50
2022-12-04T17:48:38.688Z,68.50
2022-12-04T17:51:09.831Z,68.70
2022-12-04T17:53:45.325Z,68.60
2022-12-04T17:56:17.241Z,69.20
2022-12-04T17:58:49.891Z,68.70
2022-12-04T18:01:21.118Z,68.80
2022-12-04T18:03:51.419Z,68.80
2022-12-04T18:06:22.972Z,68.60
2022-12-04T18:08:57.373Z,68.80
2022-12-04T18:11:33.233Z,68.90
2022-12-04T18:14:12.034Z,68.90
2022-12-04T18:16:44.320Z,68.90
2022-12-04T18:19:15.400Z,68.90
2022-12-04T18:21:45.641Z,69.00
2022-12-04T18:24:17.092Z,69.00
2022-12-04T18:26:49.387Z,69.20
2022-12-04T18:29:22.251Z,69.20
2022-12-04T18:31:52.607Z,69.20
2022-12-04T18:34:22.481Z,69.20
2022-12-04T18:36:51.546Z,69.00
2022-12-04T18:39:23.635Z,69.00
2022-12-04T18:41:55.307Z,69.10
2022-12-04T18:44:24.855Z,69.00
2022-12-04T18:46:54.388Z,69.00
2022-12-04T18:49:23.418Z,69.00
2022-12-04T18:51:52.336Z,68.90
2022-12-04T18:54:25.136Z,68.90
2022-12-04T18:56:54.254Z,69.10
2022-12-04T18:59:24.982Z,69.00
2022-12-04T19:01:57.060Z,69.10
2022-12-04T19:04:34.328Z,69.30
2022-12-04T19:07:05.128Z,69.30
2022-12-04T19:10:09.284Z,69.30
2022-12-04T19:12:24.861Z,69.60
2022-12-04T19:14:54.146Z,69.60
2022-12-04T19:17:23.428Z,69.70
2022-12-04T19:19:52.382Z,69.60
2022-12-04T19:22:21.169Z,69.50
2022-12-04T19:24:51.524Z,69.60
2022-12-04T19:27:20.467Z,69.60
2022-12-04T19:29:49.379Z,69.40
2022-12-04T19:32:18.273Z,69.50
2022-12-04T19:34:49.634Z,69.60
2022-12-04T19:37:19.591Z,69.70
2022-12-04T19:39:48.469Z,69.60
2022-12-04T19:42:19.493Z,69.60
2022-12-04T19:44:49.633Z,69.60
2022-12-04T19:47:19.605Z,69.80
2022-12-04T19:49:48.782Z,69.70
2022-12-04T19:52:18.267Z,69.70
2022-12-04T19:54:47.309Z,69.90
2022-12-04T19:57:17.980Z,69.90
2022-12-04T19:59:47.165Z,70.00
2022-12-04T20:02:16.537Z,70.00
2022-12-04T20:04:45.780Z,70.10
2022-12-04T20:07:17.752Z,70.10
2022-12-04T20:09:52.048Z,70.10
2022-12-04T20:12:22.908Z,70.30
2022-12-04T20:14:51.955Z,70.40
2022-12-04T20:17:20.856Z,70.40
2022-12-04T20:19:49.858Z,70.40
2022-12-04T20:22:18.738Z,70.40
2022-12-04T20:24:47.921Z,70.50
2022-12-04T20:27:17.290Z,70.50
2022-12-04T20:29:47.770Z,70.60
2022-12-04T20:32:17.037Z,70.60
2022-12-04T20:34:46.258Z,70.70
2022-12-04T20:37:15.673Z,70.60
2022-12-04T20:39:45.573Z,70.60
2022-12-04T20:42:15.555Z,70.70
2022-12-04T20:44:44.440Z,70.90
2022-12-04T20:47:14.589Z,70.90
2022-12-04T20:49:43.702Z,71.00
2022-12-04T20:52:12.759Z,70.90
2022-12-04T20:54:42.279Z,70.70
2022-12-04T20:57:11.468Z,70.70
2022-12-04T20:59:40.332Z,71.00
2022-12-04T21:02:09.239Z,70.90
2022-12-04T21:04:40.035Z,70.80
2022-12-04T21:07:09.005Z,71.10
2022-12-04T21:09:40.795Z,71.00
2022-12-04T21:12:23.732Z,71.00
2022-12-04T21:15:10.341Z,71.00
2022-12-04T21:17:40.261Z,71.00
2022-12-04T21:20:11.778Z,71.00
2022-12-04T21:22:40.674Z,71.10
2022-12-04T21:25:10.358Z,71.10
2022-12-04T21:27:39.461Z,71.20
2022-12-04T21:30:09.847Z,71.30
2022-12-04T21:32:38.744Z,71.30
2022-12-04T21:35:08.737Z,71.30
2022-12-04T21:37:39.065Z,71.40
2022-12-04T21:40:09.423Z,71.40
2022-12-04T21:42:38.846Z,71.50
2022-12-04T21:45:09.144Z,71.50
2022-12-04T21:47:38.454Z,71.60
2022-12-04T21:50:09.483Z,71.60
2022-12-04T21:52:39.743Z,71.60
2022-12-04T21:55:09.367Z,71.50
2022-12-04T21:57:38.266Z,71.40
2022-12-04T22:00:08.919Z,71.40
2022-12-04T22:02:38.984Z,71.40
2022-12-04T22:05:08.646Z,71.40
2022-12-04T22:07:38.955Z,71.40
2022-12-04T22:10:11.076Z,71.40
2022-12-04T22:12:49.423Z,71.50
2022-12-04T22:15:20.026Z,71.30
2022-12-04T22:17:48.962Z,71.40
2022-12-04T22:20:18.518Z,71.50
2022-12-04T22:22:49.163Z,71.50
2022-12-04T22:25:18.265Z,72.40
2022-12-04T22:27:47.331Z,71.60
2022-12-04T22:30:17.151Z,71.60
2022-12-04T22:32:46.314Z,71.80
2022-12-04T22:35:15.644Z,71.80
2022-12-04T22:37:44.932Z,71.90
2022-12-04T22:40:16.397Z,71.80
2022-12-04T22:42:45.789Z,72.00
2022-12-04T22:45:15.746Z,72.00
2022-12-04T22:47:44.572Z,72.10
2022-12-04T22:50:13.881Z,71.90
2022-12-04T22:52:42.855Z,72.10
2022-12-04T22:55:11.907Z,72.30
2022-12-04T22:57:42.159Z,72.30
2022-12-04T23:00:12.461Z,72.40
2022-12-04T23:02:41.469Z,72.30
2022-12-04T23:05:11.055Z,72.30
2022-12-04T23:07:40.166Z,72.30
2022-12-04T23:10:09.804Z,72.30
2022-12-04T23:12:38.906Z,72.30
2022-12-04T23:15:10.662Z,72.30
2022-12-04T23:17:40.351Z,72.40
2022-12-04T23:20:10.210Z,72.40
2022-12-04T23:22:39.332Z,72.40
2022-12-04T23:25:09.359Z,72.30
2022-12-04T23:27:38.497Z,72.60
2022-12-04T23:30:10.655Z,72.50
2022-12-04T23:32:39.999Z,72.60
2022-12-04T23:35:10.121Z,72.60
2022-12-04T23:37:39.391Z,72.70
2022-12-04T23:40:10.631Z,72.70
2022-12-04T23:42:40.054Z,72.80
2022-12-04T23:45:11.009Z,72.80
2022-12-04T23:47:40.095Z,72.80
2022-12-04T23:50:09.641Z,72.80
2022-12-04T23:52:38.719Z,72.80
2022-12-04T23:55:08.986Z,72.80
2022-12-04T23:57:37.986Z,72.80
